bureau de piste

Plus d’information sur les terrains : LFMD et VALBERG

METAR LFMD 251330Z AUTO 16007KT 120V200 CAVOK 21/15 Q1014 No

TAF found for LFMD

INFORMATION ADDS - 1402 UTC 25 May 2019

Les commentaires sont clos.